Sibley, Illinois
Current Conditions -  °F | °C
As of 3:10 AM on Thursday 27 Nov 2014 (Local Time) from KTIP Reporting Station
Haze Haze  
Wind Chill: 16°   Ceiling: 3400
Heat Index: 26°   Visibility: 5mi
Dew Point: 23°   Wind: 10mph
Humidity: 89%   Direction: 300°WNW
Pressure: 30.25"   Gusts: NA
Location:  40.59°N, 88.38°W
Report Text: KTIP 270910Z AUTO 30009KT 5SM BR OVC034 M03/M05 A3025 RMK AO2 T10351051
Loading
Personal Weather Stations






























Interactive Weather Map New forecast layout! Learn more

10-Day Weather Forecast

Advertisements
Track Severe Weather on mobile